Time;durP1;ratioP1;P1;durP2;ratioP2;P2;SDS_P1;SDS_P2;PMS_P1;PMS_P2;Temp;Humidity;BMP_temperature;BMP_pressure;BME280_temperature;BME280_humidity;BME280_pressure;Samples;Min_cycle;Max_cycle;Signal;HPM_P1;HPM_P2
2021/07/27 00:00:38;;;;;;;7.97;4.80;;;18.30;99.90;;;;;;4952876;29;20039;-74
2021/07/27 00:03:05;;;;;;;9.75;5.43;;;18.40;99.90;;;;;;4953619;29;20042;-72
2021/07/27 00:05:32;;;;;;;8.27;5.55;;;18.40;99.90;;;;;;4953279;28;20047;-73
2021/07/27 00:07:58;;;;;;;7.18;5.93;;;18.30;99.90;;;;;;4953548;28;20481;-73
2021/07/27 00:10:25;;;;;;;9.45;6.65;;;18.20;99.90;;;;;;4954829;28;20048;-75
2021/07/27 00:12:51;;;;;;;9.30;6.20;;;18.20;99.90;;;;;;4953781;29;20039;-73
2021/07/27 00:15:17;;;;;;;8.15;5.85;;;18.10;99.90;;;;;;4954207;28;20047;-74
2021/07/27 00:17:43;;;;;;;8.88;6.57;;;18.10;99.90;;;;;;4952057;29;20062;-74
2021/07/27 00:20:10;;;;;;;11.60;6.85;;;18.10;99.90;;;;;;4953846;29;20038;-74
2021/07/27 00:22:42;;;;;;;9.68;6.70;;;18.10;99.90;;;;;;4952473;29;20042;-74
2021/07/27 00:25:09;;;;;;;9.07;6.43;;;18.00;99.90;;;;;;4939252;29;20043;-74
2021/07/27 00:27:36;;;;;;;10.68;7.38;;;18.00;99.90;;;;;;4948951;29;20028;-74
2021/07/27 00:30:09;;;;;;;10.32;6.72;;;18.00;99.90;;;;;;4935739;29;20031;-74
2021/07/27 00:32:36;;;;;;;8.18;6.32;;;17.90;99.90;;;;;;4945240;29;20050;-74
2021/07/27 00:35:04;;;;;;;10.55;6.72;;;18.00;99.90;;;;;;4951807;28;20465;-74
2021/07/27 00:37:32;;;;;;;8.77;5.97;;;18.00;99.90;;;;;;4943035;28;20048;-74
2021/07/27 00:40:00;;;;;;;8.65;6.25;;;17.90;99.90;;;;;;4965536;28;20047;-74
2021/07/27 00:42:26;;;;;;;9.30;6.30;;;17.90;99.90;;;;;;4952662;29;20752;-75
2021/07/27 00:44:55;;;;;;;10.02;6.38;;;17.80;99.90;;;;;;4952261;29;20035;-74
2021/07/27 00:47:21;;;;;;;7.82;5.90;;;17.80;99.90;;;;;;4953360;29;20031;-75
2021/07/27 00:49:47;;;;;;;9.57;6.70;;;17.80;99.90;;;;;;4953118;28;20043;-74
2021/07/27 00:52:14;;;;;;;9.63;6.35;;;17.80;99.90;;;;;;4951430;29;20505;-74
2021/07/27 00:54:40;;;;;;;8.80;7.22;;;17.80;99.90;;;;;;4952708;29;20489;-74
2021/07/27 00:57:06;;;;;;;9.70;6.43;;;17.90;99.90;;;;;;4953091;28;20047;-74
2021/07/27 00:59:33;;;;;;;8.63;6.35;;;17.90;99.90;;;;;;4952108;29;20046;-74
2021/07/27 01:01:59;;;;;;;7.43;5.68;;;17.90;99.90;;;;;;4951918;29;20043;-74
2021/07/27 01:04:26;;;;;;;10.13;6.25;;;17.90;99.90;;;;;;4952487;29;20031;-75
2021/07/27 01:06:53;;;;;;;9.35;6.47;;;17.80;99.90;;;;;;4953574;28;20044;-74
2021/07/27 01:09:19;;;;;;;9.57;6.68;;;17.80;99.90;;;;;;4952756;29;20035;-74
2021/07/27 01:11:46;;;;;;;11.80;7.65;;;17.70;99.90;;;;;;4951062;28;20039;-73
2021/07/27 01:14:12;;;;;;;9.90;7.25;;;17.70;99.90;;;;;;4954073;29;20031;-74
2021/07/27 01:16:38;;;;;;;8.88;7.20;;;17.60;99.90;;;;;;4966398;28;20441;-74
2021/07/27 01:38:38;;;;;;;10.98;7.57;;;17.20;99.90;;;;;;4952933;29;20461;-73
2021/07/27 01:43:35;;;;;;;10.77;7.18;;;17.10;99.90;;;;;;4950725;29;20043;-74
2021/07/27 01:46:01;;;;;;;10.93;7.07;;;17.10;99.90;;;;;;4953761;28;20051;-73
2021/07/27 01:48:29;;;;;;;11.82;6.78;;;17.10;99.90;;;;;;4970582;28;20047;-75
2021/07/27 01:50:58;;;;;;;9.15;7.03;;;17.10;99.90;;;;;;4956423;29;20036;-73
2021/07/27 01:53:49;;;;;;;9.85;7.57;;;17.10;99.90;;;;;;4956331;29;20043;-74
2021/07/27 01:56:16;;;;;;;8.63;7.03;;;17.10;99.90;;;;;;4954731;29;20051;-73
2021/07/27 01:58:47;;;;;;;8.68;6.90;;;17.20;99.90;;;;;;4955640;29;20039;-74
2021/07/27 02:01:13;;;;;;;10.02;7.30;;;17.10;99.90;;;;;;4971139;28;20043;-73
2021/07/27 02:03:40;;;;;;;7.68;6.85;;;17.20;99.90;;;;;;4955568;29;20477;-73
2021/07/27 02:06:06;;;;;;;8.00;6.38;;;17.10;99.90;;;;;;4954661;29;20035;-73
2021/07/27 02:08:32;;;;;;;7.28;6.50;;;17.10;99.90;;;;;;4956454;29;20023;-74
2021/07/27 02:11:07;;;;;;;9.57;6.88;;;17.10;99.90;;;;;;4956220;29;20031;-74
2021/07/27 02:13:44;;;;;;;7.25;6.38;;;17.10;99.90;;;;;;4955546;28;20401;-73
2021/07/27 02:16:11;;;;;;;7.70;6.35;;;17.10;99.90;;;;;;4955915;29;20031;-74
2021/07/27 02:18:37;;;;;;;12.52;6.85;;;17.10;99.90;;;;;;4954241;29;20027;-73
2021/07/27 02:21:03;;;;;;;7.25;6.28;;;17.20;99.90;;;;;;4955750;29;20028;-74
2021/07/27 02:23:30;;;;;;;8.13;7.03;;;17.20;99.90;;;;;;4954549;29;20035;-75
2021/07/27 02:25:56;;;;;;;7.60;5.78;;;17.10;99.90;;;;;;4955354;29;20050;-73
2021/07/27 02:28:22;;;;;;;7.40;5.75;;;17.10;99.90;;;;;;4948524;29;20039;-73
2021/07/27 02:33:21;;;;;;;7.90;6.68;;;17.00;99.90;;;;;;4955326;28;20051;-74
2021/07/27 02:35:47;;;;;;;9.00;6.30;;;17.10;99.90;;;;;;4937419;29;20036;-73
2021/07/27 02:38:15;;;;;;;10.35;6.53;;;17.10;99.90;;;;;;4951535;29;20393;-74
2021/07/27 02:40:41;;;;;;;7.78;6.80;;;17.10;99.90;;;;;;4955259;29;20035;-74
2021/07/27 02:43:10;;;;;;;10.02;7.20;;;17.10;99.90;;;;;;4956110;29;20036;-74
2021/07/27 02:45:37;;;;;;;7.47;6.65;;;17.10;99.90;;;;;;4954685;28;20493;-74
2021/07/27 02:48:04;;;;;;;11.38;6.60;;;17.10;99.90;;;;;;4940438;28;20040;-73
2021/07/27 02:50:45;;;;;;;10.65;7.13;;;17.10;99.90;;;;;;4953922;29;20031;-74
2021/07/27 02:53:12;;;;;;;7.85;6.13;;;17.10;99.90;;;;;;4947816;28;20051;-73
2021/07/27 02:55:38;;;;;;;8.10;6.57;;;17.10;99.90;;;;;;4954926;29;20465;-73
2021/07/27 02:58:10;;;;;;;8.15;5.82;;;17.10;99.90;;;;;;4953549;28;20062;-74
2021/07/27 03:00:36;;;;;;;9.85;7.55;;;17.10;99.90;;;;;;4952522;28;20449;-73
2021/07/27 03:03:02;;;;;;;6.88;6.18;;;17.10;99.90;;;;;;4950433;29;20035;-73
2021/07/27 03:05:29;;;;;;;9.20;7.07;;;17.10;99.90;;;;;;4954425;28;20055;-75
2021/07/27 03:07:58;;;;;;;8.93;6.75;;;17.10;99.90;;;;;;4954956;29;20130;-73
2021/07/27 03:10:24;;;;;;;11.00;6.45;;;17.10;99.90;;;;;;4954704;29;20042;-73
2021/07/27 03:12:55;;;;;;;8.48;6.45;;;17.10;99.90;;;;;;4953228;29;20044;-74
2021/07/27 03:15:29;;;;;;;8.98;6.40;;;17.10;99.90;;;;;;4954561;29;20035;-73
2021/07/27 03:17:57;;;;;;;9.73;6.50;;;17.10;99.90;;;;;;4954655;29;20031;-73
2021/07/27 03:20:25;;;;;;;7.35;5.88;;;17.20;99.90;;;;;;4952348;28;20398;-74
2021/07/27 03:22:53;;;;;;;7.43;5.63;;;17.20;99.90;;;;;;4935654;29;20038;-74
2021/07/27 03:25:20;;;;;;;7.40;5.70;;;17.20;99.90;;;;;;4954039;29;20035;-73
2021/07/27 03:27:51;;;;;;;7.28;6.32;;;17.20;99.90;;;;;;4968794;28;20047;-73
2021/07/27 03:30:18;;;;;;;7.45;6.10;;;17.30;99.90;;;;;;4945228;28;20051;-73
2021/07/27 03:32:46;;;;;;;8.40;6.30;;;17.30;99.90;;;;;;4942851;29;20473;-73
2021/07/27 03:35:14;;;;;;;9.35;6.90;;;17.30;99.90;;;;;;4950240;29;20036;-73
2021/07/27 03:37:40;;;;;;;8.00;6.50;;;17.30;99.90;;;;;;4941507;29;20034;-73
2021/07/27 03:40:07;;;;;;;13.55;6.97;;;17.30;99.90;;;;;;4946025;29;20035;-73
2021/07/27 03:42:33;;;;;;;9.35;6.30;;;17.30;99.90;;;;;;4936461;28;20470;-74
2021/07/27 03:45:00;;;;;;;9.63;7.65;;;17.30;99.90;;;;;;4936289;29;20036;-74
2021/07/27 03:47:26;;;;;;;7.90;6.82;;;17.30;99.90;;;;;;4951209;29;20035;-73
2021/07/27 03:49:56;;;;;;;9.18;6.60;;;17.30;99.90;;;;;;4952314;28;20485;-73
2021/07/27 03:52:23;;;;;;;9.82;6.82;;;17.40;99.90;;;;;;4954697;29;20039;-73
2021/07/27 03:54:49;;;;;;;9.65;6.70;;;17.30;99.90;;;;;;4958854;29;20023;-73
2021/07/27 03:57:16;;;;;;;12.68;6.85;;;17.30;99.90;;;;;;4940999;29;20406;-73
2021/07/27 03:59:42;;;;;;;8.18;6.47;;;17.20;99.90;;;;;;4954883;29;20496;-74
2021/07/27 04:02:08;;;;;;;7.97;6.43;;;17.20;99.90;;;;;;4954961;29;20031;-73
2021/07/27 04:04:38;;;;;;;7.13;5.93;;;17.20;99.90;;;;;;4954306;28;20059;-73
2021/07/27 04:07:04;;;;;;;8.63;5.97;;;17.20;99.90;;;;;;4952683;29;20370;-72
2021/07/27 04:09:30;;;;;;;8.38;6.28;;;17.20;99.90;;;;;;4953088;28;20027;-74
2021/07/27 04:11:57;;;;;;;9.45;6.35;;;17.30;99.90;;;;;;4954432;28;20058;-73
2021/07/27 04:14:23;;;;;;;7.57;6.28;;;17.30;99.90;;;;;;4956196;28;20047;-73
2021/07/27 04:16:49;;;;;;;10.65;6.45;;;17.40;99.90;;;;;;4954865;29;20108;-73
2021/07/27 04:19:15;;;;;;;7.63;6.25;;;17.30;99.90;;;;;;4952152;28;20046;-74
2021/07/27 04:21:42;;;;;;;7.82;6.18;;;17.40;99.90;;;;;;4967587;28;20043;-73
2021/07/27 04:24:09;;;;;;;9.98;6.65;;;17.40;99.90;;;;;;4953148;29;20480;-73
2021/07/27 04:26:35;;;;;;;8.43;6.15;;;17.40;99.90;;;;;;4954294;28;20042;-73
2021/07/27 04:29:02;;;;;;;6.85;6.15;;;17.50;99.90;;;;;;4953420;28;20047;-73
2021/07/27 04:31:28;;;;;;;12.20;5.93;;;17.60;99.90;;;;;;4952591;28;20051;-75
2021/07/27 04:33:54;;;;;;;8.32;6.45;;;17.60;99.90;;;;;;4953153;29;20043;-73
2021/07/27 04:36:21;;;;;;;10.73;6.90;;;17.70;99.90;;;;;;4953137;29;20031;-73
2021/07/27 04:38:47;;;;;;;8.73;7.07;;;17.80;99.90;;;;;;4952700;29;20377;-73
2021/07/27 04:41:13;;;;;;;10.65;7.40;;;17.90;99.90;;;;;;4958691;28;20027;-73
2021/07/27 04:43:40;;;;;;;8.27;7.25;;;18.10;99.90;;;;;;4966461;28;20031;-72
2021/07/27 04:46:07;;;;;;;11.38;6.65;;;18.60;99.90;;;;;;4966276;28;20031;-71
2021/07/27 04:48:34;;;;;;;8.30;6.55;;;19.00;99.90;;;;;;4951549;29;20023;-72
2021/07/27 04:51:01;;;;;;;8.25;6.20;;;19.30;99.90;;;;;;4953008;29;20043;-71
2021/07/27 04:53:30;;;;;;;6.68;5.60;;;19.90;99.90;;;;;;4952912;29;20043;-71
2021/07/27 04:56:00;;;;;;;7.90;6.55;;;20.10;99.90;;;;;;4952784;29;20473;-72
2021/07/27 04:58:26;;;;;;;7.65;5.88;;;20.20;99.90;;;;;;4952885;29;20078;-72
2021/07/27 05:00:59;;;;;;;8.48;6.43;;;20.30;99.90;;;;;;4952692;29;20039;-72
2021/07/27 05:03:25;;;;;;;9.15;5.82;;;20.40;99.90;;;;;;4952707;29;20035;-71
2021/07/27 05:05:54;;;;;;;7.85;6.25;;;21.10;99.90;;;;;;4952279;28;20043;-72
2021/07/27 05:08:20;;;;;;;8.10;5.93;;;21.90;99.90;;;;;;4953030;29;20035;-72
2021/07/27 05:10:46;;;;;;;6.95;5.60;;;22.60;99.90;;;;;;4952656;29;20046;-72
2021/07/27 05:13:13;;;;;;;14.98;5.80;;;23.20;98.60;;;;;;4940432;28;20039;-70
2021/07/27 05:15:39;;;;;;;6.32;4.90;;;23.30;96.90;;;;;;4951837;29;20123;-71
2021/07/27 05:18:05;;;;;;;8.13;5.45;;;23.20;95.60;;;;;;4952744;29;20062;-70
2021/07/27 05:20:31;;;;;;;6.15;4.93;;;23.50;95.30;;;;;;4952026;28;20034;-72
2021/07/27 05:22:58;;;;;;;7.18;5.70;;;23.80;94.10;;;;;;4956351;28;20409;-70
2021/07/27 05:25:24;;;;;;;7.78;5.53;;;23.70;93.20;;;;;;4955090;29;20484;-71
2021/07/27 05:27:50;;;;;;;8.07;5.57;;;23.20;93.70;;;;;;4955808;29;20030;-70
2021/07/27 05:30:17;;;;;;;5.95;5.35;;;22.50;94.60;;;;;;4956492;29;20042;-71
2021/07/27 05:32:43;;;;;;;8.25;6.00;;;22.90;94.40;;;;;;4954776;28;20031;-71
2021/07/27 05:35:11;;;;;;;7.35;6.15;;;22.50;94.10;;;;;;4955503;29;20035;-71
2021/07/27 05:37:37;;;;;;;6.15;5.55;;;22.50;94.70;;;;;;4944603;29;20042;-71
2021/07/27 05:40:04;;;;;;;9.52;5.50;;;22.90;93.90;;;;;;4956594;28;20048;-71
2021/07/27 05:42:30;;;;;;;8.07;5.18;;;22.90;94.40;;;;;;4955749;28;20031;-72
2021/07/27 05:44:57;;;;;;;9.48;6.07;;;23.60;94.10;;;;;;4955769;29;20501;-71
2021/07/27 05:47:23;;;;;;;6.40;5.05;;;24.50;92.00;;;;;;4956064;29;20086;-71
2021/07/27 05:49:49;;;;;;;5.63;4.97;;;24.30;91.00;;;;;;4955562;28;20043;-71
2021/07/27 05:52:16;;;;;;;7.15;5.38;;;25.50;88.80;;;;;;4953659;28;20047;-71
2021/07/27 05:54:45;;;;;;;5.95;5.35;;;26.10;83.80;;;;;;4954136;28;20457;-71
2021/07/27 05:57:12;;;;;;;6.97;5.75;;;25.50;84.30;;;;;;4954760;29;20039;-71
2021/07/27 05:59:40;;;;;;;5.63;4.70;;;25.50;83.50;;;;;;4955345;29;20416;-71
2021/07/27 06:02:07;;;;;;;7.15;5.32;;;25.50;83.10;;;;;;4938014;29;20054;-71
2021/07/27 06:04:34;;;;;;;6.38;4.75;;;25.20;82.50;;;;;;4967825;28;20051;-73
2021/07/27 06:07:01;;;;;;;8.25;5.10;;;24.50;85.40;;;;;;4955950;29;20477;-72
2021/07/27 06:09:28;;;;;;;6.30;5.00;;;23.70;85.00;;;;;;4954605;29;20027;-73
2021/07/27 06:11:54;;;;;;;8.18;5.85;;;22.80;89.50;;;;;;4952510;28;20035;-71
2021/07/27 06:14:20;;;;;;;5.78;4.97;;;21.90;91.30;;;;;;4952393;28;20043;-72
2021/07/27 06:16:46;;;;;;;7.00;5.30;;;21.90;92.90;;;;;;4954362;28;20055;-72
2021/07/27 06:19:13;;;;;;;7.10;5.85;;;22.30;91.70;;;;;;4954750;29;20038;-72
2021/07/27 06:21:40;;;;;;;9.30;5.70;;;22.10;92.60;;;;;;4953736;29;20042;-72
2021/07/27 06:24:10;;;;;;;10.07;6.18;;;21.90;93.20;;;;;;4948908;28;20035;-72
2021/07/27 06:26:39;;;;;;;13.38;6.18;;;23.00;92.30;;;;;;4954046;28;20049;-73
2021/07/27 06:29:06;;;;;;;7.50;4.95;;;24.40;89.90;;;;;;4955410;29;20602;-73
2021/07/27 06:31:32;;;;;;;6.32;4.78;;;24.30;86.30;;;;;;4953058;28;20054;-73
2021/07/27 06:33:59;;;;;;;5.95;5.10;;;24.60;85.50;;;;;;4955109;28;20050;-73
2021/07/27 06:36:25;;;;;;;8.05;4.90;;;24.80;83.90;;;;;;4955661;29;20042;-73
2021/07/27 06:38:51;;;;;;;6.97;4.85;;;24.10;85.90;;;;;;4954884;29;20332;-73
2021/07/27 06:41:17;;;;;;;5.50;4.75;;;23.90;82.20;;;;;;4955041;29;20035;-73
2021/07/27 06:43:43;;;;;;;5.53;4.70;;;23.90;84.40;;;;;;4955380;29;20031;-73
2021/07/27 06:46:10;;;;;;;10.32;5.65;;;24.60;81.80;;;;;;4954175;29;20392;-73
2021/07/27 06:48:37;;;;;;;6.07;5.47;;;25.20;80.50;;;;;;4954840;29;20035;-73
2021/07/27 06:51:21;;;;;;;10.32;5.95;;;25.40;78.00;;;;;;4955320;29;20453;-71
2021/07/27 06:53:48;;;;;;;5.40;4.80;;;24.50;79.60;;;;;;4953135;29;20035;-73
2021/07/27 06:56:14;;;;;;;8.23;5.85;;;24.40;81.60;;;;;;4954886;28;20438;-73
2021/07/27 06:58:41;;;;;;;5.93;4.78;;;24.20;79.60;;;;;;4954009;28;20047;-72
2021/07/27 07:01:09;;;;;;;6.95;4.95;;;23.30;83.40;;;;;;4953735;29;20062;-73
2021/07/27 07:03:42;;;;;;;5.88;4.38;;;23.50;83.50;;;;;;4954574;28;20047;-73
2021/07/27 07:06:11;;;;;;;7.88;4.82;;;24.30;80.00;;;;;;4953716;29;20035;-72
2021/07/27 07:08:38;;;;;;;5.05;4.30;;;25.60;77.40;;;;;;4954186;29;20046;-73
2021/07/27 07:11:06;;;;;;;6.18;4.40;;;26.70;74.10;;;;;;4953605;29;20035;-73
2021/07/27 07:13:33;;;;;;;9.60;4.80;;;27.30;72.20;;;;;;4954280;29;20038;-73
2021/07/27 07:15:59;;;;;;;8.57;4.40;;;28.10;69.90;;;;;;4953762;29;20034;-73
2021/07/27 07:18:26;;;;;;;6.68;4.43;;;28.60;68.30;;;;;;4954653;29;20076;-73
2021/07/27 07:20:52;;;;;;;7.18;4.60;;;27.60;68.40;;;;;;4954355;29;20047;-73
2021/07/27 07:23:21;;;;;;;7.65;4.82;;;26.60;69.50;;;;;;4951460;28;20031;-73
2021/07/27 07:25:51;;;;;;;5.28;4.78;;;25.80;70.40;;;;;;4953166;28;20425;-73
2021/07/27 07:28:20;;;;;;;7.40;4.50;;;25.40;72.80;;;;;;4954724;29;20039;-74
2021/07/27 07:30:47;;;;;;;6.28;4.72;;;25.40;72.50;;;;;;4952360;28;20078;-73
2021/07/27 07:33:14;;;;;;;5.90;5.10;;;25.20;73.40;;;;;;4953520;28;20405;-72
2021/07/27 07:35:41;;;;;;;5.70;4.28;;;24.30;74.60;;;;;;4953170;29;20038;-73
2021/07/27 07:38:07;;;;;;;4.97;4.32;;;23.60;76.70;;;;;;4953806;28;20043;-72
2021/07/27 07:40:33;;;;;;;5.88;5.10;;;23.60;79.80;;;;;;4953831;29;20043;-73
2021/07/27 07:43:01;;;;;;;6.00;4.80;;;24.00;78.30;;;;;;4953126;29;20036;-72
2021/07/27 07:45:28;;;;;;;7.18;5.32;;;23.90;77.50;;;;;;4953779;28;20046;-72
2021/07/27 07:47:54;;;;;;;6.97;4.78;;;23.70;79.10;;;;;;4953885;29;20410;-72
2021/07/27 07:50:22;;;;;;;5.78;4.70;;;23.80;79.90;;;;;;4954182;28;20047;-72
2021/07/27 07:52:58;;;;;;;9.85;5.47;;;24.10;79.50;;;;;;4952328;29;20027;-73
2021/07/27 07:55:24;;;;;;;7.32;5.70;;;24.90;76.30;;;;;;4954536;28;20039;-73
2021/07/27 07:57:50;;;;;;;6.45;5.40;;;25.20;76.20;;;;;;4951807;29;20062;-72
2021/07/27 08:00:19;;;;;;;8.07;5.20;;;25.30;77.70;;;;;;4952861;29;20385;-73
2021/07/27 08:02:45;;;;;;;6.30;5.55;;;25.00;78.70;;;;;;4954660;28;20077;-73
2021/07/27 08:05:11;;;;;;;7.13;5.10;;;24.40;78.80;;;;;;4952503;29;20072;-73
2021/07/27 08:07:38;;;;;;;6.45;5.07;;;24.80;79.40;;;;;;4967399;28;20047;-74
2021/07/27 08:10:04;;;;;;;7.93;5.05;;;25.30;76.60;;;;;;4965116;28;20043;-72
2021/07/27 08:12:30;;;;;;;6.60;5.85;;;24.90;77.00;;;;;;4945757;29;20047;-73
2021/07/27 08:14:57;;;;;;;7.75;5.22;;;24.40;77.80;;;;;;4953235;29;20046;-73
2021/07/27 08:17:23;;;;;;;6.13;5.03;;;24.40;79.90;;;;;;4953883;29;20039;-72
2021/07/27 08:19:50;;;;;;;6.93;5.22;;;24.40;80.60;;;;;;4952765;28;20043;-73
2021/07/27 08:22:16;;;;;;;6.57;5.25;;;24.10;78.50;;;;;;4952751;29;20032;-73
2021/07/27 08:24:42;;;;;;;8.70;5.72;;;23.50;82.70;;;;;;4955382;29;20054;-73
2021/07/27 08:27:08;;;;;;;8.30;6.43;;;23.50;81.30;;;;;;4946114;29;20042;-73
2021/07/27 08:29:38;;;;;;;7.88;5.75;;;23.30;81.40;;;;;;4954532;29;20035;-74
2021/07/27 08:32:08;;;;;;;8.43;5.53;;;23.60;82.60;;;;;;4954174;28;20386;-73
2021/07/27 08:34:38;;;;;;;6.28;4.93;;;23.70;82.10;;;;;;4943181;29;20489;-73
2021/07/27 08:37:05;;;;;;;7.35;5.20;;;24.60;80.10;;;;;;4950625;29;20040;-73
2021/07/27 08:39:32;;;;;;;5.57;4.85;;;25.00;78.10;;;;;;4953366;29;20034;-72
2021/07/27 08:42:04;;;;;;;5.65;5.05;;;25.10;77.70;;;;;;4951873;28;20043;-73
2021/07/27 08:44:34;;;;;;;8.13;5.68;;;25.80;77.70;;;;;;4950022;29;20047;-72
2021/07/27 08:47:12;;;;;;;6.47;5.53;;;26.50;72.70;;;;;;4948890;29;20385;-73
2021/07/27 08:49:45;;;;;;;6.68;5.13;;;26.40;74.70;;;;;;4953279;28;20043;-74
2021/07/27 08:52:17;;;;;;;6.30;4.60;;;25.80;73.60;;;;;;4937012;29;20556;-74
2021/07/27 08:54:47;;;;;;;5.30;4.40;;;25.80;74.60;;;;;;4951358;28;20043;-73
2021/07/27 08:57:14;;;;;;;6.60;4.88;;;26.50;74.70;;;;;;4952960;28;20048;-73
2021/07/27 08:59:41;;;;;;;5.93;4.88;;;26.70;72.20;;;;;;4952882;28;20127;-73
2021/07/27 09:02:08;;;;;;;5.93;4.25;;;25.80;73.00;;;;;;4953332;29;20039;-71
2021/07/27 09:04:34;;;;;;;5.05;4.55;;;25.40;74.40;;;;;;4952783;29;20388;-73
2021/07/27 09:07:02;;;;;;;9.40;5.50;;;25.70;73.50;;;;;;4952954;29;20047;-71
2021/07/27 09:09:31;;;;;;;5.57;5.03;;;26.10;73.00;;;;;;4952112;29;20027;-72
2021/07/27 09:12:00;;;;;;;7.60;5.15;;;25.80;72.50;;;;;;4952742;29;20054;-73
2021/07/27 09:14:28;;;;;;;5.20;4.53;;;26.30;73.00;;;;;;4944020;29;20485;-74
2021/07/27 09:16:56;;;;;;;5.10;4.47;;;27.20;70.50;;;;;;4952969;29;20031;-74
2021/07/27 09:19:23;;;;;;;8.05;5.07;;;27.80;68.10;;;;;;4953166;28;20040;-73
2021/07/27 09:21:50;;;;;;;6.13;4.63;;;28.10;66.50;;;;;;4935752;29;20462;-73
2021/07/27 09:24:22;;;;;;;7.68;4.55;;;28.10;68.50;;;;;;4945992;28;20051;-73
2021/07/27 09:26:59;;;;;;;5.45;4.53;;;27.40;67.30;;;;;;4950269;29;20035;-73
2021/07/27 09:29:29;;;;;;;6.88;4.82;;;27.10;69.00;;;;;;4952190;28;20051;-72
2021/07/27 09:32:00;;;;;;;6.47;5.20;;;27.50;69.60;;;;;;4967323;28;20050;-73
2021/07/27 09:34:29;;;;;;;9.52;4.65;;;27.00;67.60;;;;;;4953009;29;20054;-73
2021/07/27 09:37:04;;;;;;;8.20;4.93;;;26.40;68.90;;;;;;4952438;29;20438;-73
2021/07/27 09:39:31;;;;;;;4.85;4.30;;;26.40;68.60;;;;;;4953277;28;20401;-72
2021/07/27 09:42:17;;;;;;;7.57;5.07;;;26.70;68.80;;;;;;4952274;28;20054;-72
2021/07/27 09:44:43;;;;;;;7.18;4.22;;;25.80;69.40;;;;;;4952157;29;20057;-72
2021/07/27 09:47:10;;;;;;;6.65;4.70;;;25.70;72.70;;;;;;4952337;28;20047;-72
2021/07/27 09:49:38;;;;;;;8.48;5.30;;;25.40;70.40;;;;;;4951178;29;20032;-73
2021/07/27 09:52:06;;;;;;;7.75;5.32;;;25.40;72.00;;;;;;4953167;28;20389;-72
2021/07/27 09:54:32;;;;;;;5.63;5.00;;;25.30;71.40;;;;;;4952789;28;20096;-73
2021/07/27 09:56:58;;;;;;;7.05;5.20;;;25.60;72.40;;;;;;4950889;29;20031;-73
2021/07/27 09:59:25;;;;;;;6.03;4.78;;;26.20;70.60;;;;;;4953877;29;20381;-72
2021/07/27 10:02:04;;;;;;;6.28;4.88;;;26.50;72.00;;;;;;4952572;29;20043;-73
2021/07/27 10:04:36;;;;;;;4.60;4.13;;;27.00;67.20;;;;;;4948978;29;20481;-72
2021/07/27 10:07:04;;;;;;;5.75;4.70;;;26.80;67.60;;;;;;4946978;28;20055;-73
2021/07/27 10:09:32;;;;;;;6.60;5.32;;;26.30;69.80;;;;;;4956105;29;20039;-73
2021/07/27 10:12:05;;;;;;;5.85;4.53;;;25.70;68.80;;;;;;4956004;28;20043;-73
2021/07/27 10:14:42;;;;;;;5.85;5.25;;;25.30;69.50;;;;;;4949399;28;20035;-72
2021/07/27 10:17:10;;;;;;;8.50;4.97;;;25.00;70.90;;;;;;4948618;29;20039;-72
2021/07/27 10:19:47;;;;;;;5.72;5.07;;;25.40;70.50;;;;;;4955327;29;20031;-73
2021/07/27 10:22:15;;;;;;;6.10;5.25;;;25.60;71.10;;;;;;4955916;29;20469;-72
2021/07/27 10:24:44;;;;;;;8.05;5.20;;;26.00;68.80;;;;;;4954467;29;20031;-73
2021/07/27 10:27:21;;;;;;;5.38;4.70;;;26.40;68.40;;;;;;4944311;29;20036;-73
2021/07/27 10:29:48;;;;;;;6.18;4.90;;;26.50;67.90;;;;;;4954897;29;20035;-72
2021/07/27 10:32:16;;;;;;;6.30;4.97;;;26.70;66.90;;;;;;4955563;29;20107;-74
2021/07/27 10:34:44;;;;;;;6.15;4.85;;;26.60;66.10;;;;;;4955392;28;20378;-74
2021/07/27 10:37:13;;;;;;;6.55;4.50;;;26.50;67.20;;;;;;4954324;29;20035;-74
2021/07/27 10:39:46;;;;;;;7.75;5.07;;;26.70;66.70;;;;;;4956433;29;20383;-73
2021/07/27 10:42:12;;;;;;;6.05;4.47;;;26.50;65.30;;;;;;4969390;28;20040;-73
2021/07/27 10:44:38;;;;;;;10.63;5.32;;;26.40;66.40;;;;;;4953961;29;20039;-74
2021/07/27 10:47:05;;;;;;;5.85;5.28;;;26.50;66.80;;;;;;4955499;28;20062;-73
2021/07/27 10:49:31;;;;;;;5.55;5.03;;;26.30;66.20;;;;;;4954339;29;20035;-73
2021/07/27 10:52:02;;;;;;;8.18;4.82;;;25.90;68.10;;;;;;4954931;28;20050;-73
2021/07/27 10:54:30;;;;;;;6.43;5.72;;;25.90;67.50;;;;;;4954177;29;20031;-73
2021/07/27 10:57:04;;;;;;;5.32;4.40;;;25.60;67.70;;;;;;4953689;29;20622;-72
2021/07/27 10:59:35;;;;;;;6.40;4.95;;;25.70;67.60;;;;;;4943128;28;20052;-73
2021/07/27 11:02:12;;;;;;;7.55;5.15;;;25.90;67.60;;;;;;4954905;28;20047;-73
2021/07/27 11:04:39;;;;;;;5.32;4.80;;;25.90;67.00;;;;;;4954417;29;20046;-73
2021/07/27 11:07:13;;;;;;;5.65;4.97;;;25.50;66.80;;;;;;4955626;28;20050;-74
2021/07/27 11:10:05;;;;;;;7.95;5.03;;;25.40;67.40;;;;;;4942338;29;20046;-73
2021/07/27 11:12:35;;;;;;;6.03;4.72;;;25.50;68.20;;;;;;4954647;28;20058;-73
2021/07/27 11:15:24;;;;;;;4.80;4.40;;;25.60;67.00;;;;;;4954439;29;20035;-73
2021/07/27 11:18:01;;;;;;;6.30;4.75;;;25.20;66.40;;;;;;4954409;28;20039;-72
2021/07/27 11:20:37;;;;;;;6.13;4.93;;;25.00;66.50;;;;;;4954348;29;20473;-73
2021/07/27 11:23:09;;;;;;;6.88;5.38;;;24.90;67.10;;;;;;4943163;29;20031;-73
2021/07/27 11:25:35;;;;;;;8.05;5.32;;;25.10;66.40;;;;;;4953032;28;20050;-73
2021/07/27 11:28:14;;;;;;;8.65;5.25;;;25.00;67.00;;;;;;4954267;29;20031;-73
2021/07/27 11:30:42;;;;;;;5.95;4.80;;;25.20;67.00;;;;;;4942873;28;20058;-73
2021/07/27 11:33:13;;;;;;;6.03;5.20;;;25.50;65.70;;;;;;4945293;29;20043;-73
2021/07/27 11:35:43;;;;;;;5.97;5.07;;;25.80;65.00;;;;;;4936742;29;20450;-74
2021/07/27 11:38:18;;;;;;;6.22;4.43;;;26.10;64.50;;;;;;4950357;29;20032;-74
2021/07/27 11:40:45;;;;;;;6.55;4.90;;;26.30;64.40;;;;;;4968738;28;20470;-74
2021/07/27 11:43:11;;;;;;;5.55;4.90;;;26.30;63.80;;;;;;4954127;28;20069;-74
2021/07/27 11:45:40;;;;;;;5.20;4.70;;;26.30;63.60;;;;;;4954215;29;20043;-74
2021/07/27 11:48:07;;;;;;;6.68;5.47;;;26.40;63.10;;;;;;4954120;29;20038;-74
2021/07/27 11:50:39;;;;;;;6.85;4.68;;;26.20;63.50;;;;;;4954800;28;20063;-74
2021/07/27 11:53:09;;;;;;;5.75;4.60;;;26.40;64.10;;;;;;4954629;29;20035;-74
2021/07/27 11:55:39;;;;;;;7.32;5.45;;;26.50;64.40;;;;;;4953970;28;20051;-74
2021/07/27 11:58:07;;;;;;;5.70;4.75;;;26.30;64.50;;;;;;4938275;29;20071;-74
2021/07/27 12:00:36;;;;;;;6.07;4.60;;;26.20;64.10;;;;;;4954453;28;20066;-74
2021/07/27 12:03:06;;;;;;;6.03;5.43;;;26.50;65.00;;;;;;4953702;29;20035;-74
2021/07/27 12:05:32;;;;;;;6.28;5.45;;;26.60;63.00;;;;;;4953858;29;20035;-73
2021/07/27 12:08:01;;;;;;;5.82;5.07;;;26.50;64.30;;;;;;4945268;29;20040;-73
2021/07/27 12:10:27;;;;;;;5.47;4.93;;;26.30;62.80;;;;;;4968082;28;20047;-73
2021/07/27 12:12:54;;;;;;;5.43;4.93;;;26.20;63.40;;;;;;4966896;28;20046;-74
2021/07/27 12:15:21;;;;;;;5.88;5.00;;;26.60;63.30;;;;;;4936344;29;20040;-74
2021/07/27 12:17:48;;;;;;;6.80;4.88;;;26.90;63.00;;;;;;4936400;29;20042;-74
2021/07/27 12:20:14;;;;;;;8.93;5.43;;;26.70;62.20;;;;;;4953753;29;20035;-74
2021/07/27 12:22:42;;;;;;;6.32;5.60;;;27.00;62.50;;;;;;4967412;28;20035;-75
2021/07/27 12:25:09;;;;;;;6.97;5.60;;;26.60;63.40;;;;;;4953494;28;20385;-74
2021/07/27 12:27:37;;;;;;;9.18;5.60;;;26.50;65.00;;;;;;4953707;28;20043;-75
2021/07/27 12:30:04;;;;;;;6.53;5.07;;;26.80;64.00;;;;;;4934654;29;20039;-74
2021/07/27 12:32:30;;;;;;;6.13;5.53;;;26.80;63.60;;;;;;4935392;29;20039;-75
2021/07/27 12:34:57;;;;;;;6.20;5.47;;;26.70;64.00;;;;;;4946506;29;20038;-74
2021/07/27 12:37:23;;;;;;;5.55;5.05;;;26.70;64.20;;;;;;4953589;29;20034;-74
2021/07/27 12:39:49;;;;;;;6.10;5.10;;;27.00;64.00;;;;;;4952927;29;20499;-74
2021/07/27 12:42:15;;;;;;;8.25;5.45;;;27.00;64.00;;;;;;4954336;29;20032;-74
2021/07/27 12:44:42;;;;;;;6.22;5.63;;;27.00;64.30;;;;;;4950523;29;20054;-75
2021/07/27 12:47:08;;;;;;;7.05;5.63;;;26.90;64.90;;;;;;4951231;29;20046;-74
2021/07/27 12:49:35;;;;;;;7.07;5.13;;;27.20;63.20;;;;;;4948361;28;20033;-73
2021/07/27 12:52:10;;;;;;;5.65;4.97;;;27.30;63.50;;;;;;4968330;28;20092;-74
2021/07/27 12:54:37;;;;;;;7.53;4.47;;;27.10;62.90;;;;;;4957906;29;20039;-74
2021/07/27 12:57:05;;;;;;;6.10;5.60;;;27.10;63.30;;;;;;4964125;29;20458;-74
2021/07/27 12:59:32;;;;;;;7.63;5.38;;;27.00;63.30;;;;;;4953377;29;20048;-75
2021/07/27 13:01:58;;;;;;;6.43;5.82;;;26.80;64.00;;;;;;4953332;29;20477;-75
2021/07/27 13:04:25;;;;;;;6.47;4.93;;;26.60;64.20;;;;;;4953415;29;20466;-72
2021/07/27 13:06:52;;;;;;;6.68;5.28;;;26.50;62.90;;;;;;4952921;29;20422;-75
2021/07/27 13:09:18;;;;;;;5.43;4.93;;;26.50;63.70;;;;;;4953850;29;20058;-75
2021/07/27 13:11:44;;;;;;;7.57;5.40;;;26.70;64.10;;;;;;4952036;29;20417;-75
2021/07/27 13:14:10;;;;;;;7.93;6.07;;;26.90;64.50;;;;;;4954566;29;20038;-75